createdAt,value
2017-10-12T00:00:22.665Z,12.30
2017-10-12T00:02:50.432Z,12.20
2017-10-12T00:05:18.246Z,12.20
2017-10-12T00:07:46.793Z,12.00
2017-10-12T00:10:14.552Z,12.00
2017-10-12T00:12:42.352Z,11.90
2017-10-12T00:15:10.895Z,11.80
2017-10-12T00:17:38.663Z,11.80
2017-10-12T00:20:06.473Z,11.70
2017-10-12T00:22:34.253Z,11.70
2017-10-12T00:25:02.018Z,11.60
2017-10-12T00:27:29.829Z,11.60
2017-10-12T00:29:57.601Z,11.50
2017-10-12T00:32:26.148Z,11.40
2017-10-12T00:34:54.735Z,11.50
2017-10-12T00:37:22.504Z,11.40
2017-10-12T00:39:50.275Z,11.50
2017-10-12T00:42:18.094Z,11.60
2017-10-12T00:44:45.885Z,11.70
2017-10-12T00:47:13.646Z,11.80
2017-10-12T00:49:41.448Z,11.90
2017-10-12T00:52:10.067Z,12.00
2017-10-12T00:54:38.597Z,12.00
2017-10-12T00:57:07.168Z,12.00
2017-10-12T00:59:34.957Z,12.00
2017-10-12T01:02:03.497Z,12.00
2017-10-12T01:04:31.489Z,12.00
2017-10-12T01:07:00.036Z,12.00
2017-10-12T01:09:27.823Z,12.00
2017-10-12T01:11:56.441Z,11.90
2017-10-12T01:14:24.987Z,11.90
2017-10-12T01:16:52.757Z,11.80
2017-10-12T01:19:21.331Z,12.00
2017-10-12T01:21:49.135Z,12.00
2017-10-12T01:24:16.931Z,12.10
2017-10-12T01:26:44.784Z,12.20
2017-10-12T01:29:12.595Z,12.20
2017-10-12T01:31:41.145Z,12.40
2017-10-12T01:34:09.219Z,12.40
2017-10-12T01:36:36.998Z,12.50
2017-10-12T01:39:05.537Z,12.60
2017-10-12T01:41:33.349Z,12.60
2017-10-12T01:44:01.906Z,12.60
2017-10-12T01:46:29.689Z,12.60
2017-10-12T01:48:58.291Z,12.60
2017-10-12T01:51:26.099Z,12.60
2017-10-12T01:53:53.866Z,12.60
2017-10-12T01:56:21.668Z,12.70
2017-10-12T01:58:49.433Z,12.80
2017-10-12T02:01:17.201Z,12.80
2017-10-12T02:03:45.010Z,12.80
2017-10-12T02:06:12.811Z,12.80
2017-10-12T02:08:40.583Z,12.80
2017-10-12T02:11:08.385Z,12.80
2017-10-12T02:13:36.166Z,12.80
2017-10-12T02:16:03.939Z,12.80
2017-10-12T02:18:32.203Z,12.80
2017-10-12T02:21:00.003Z,12.70
2017-10-12T02:23:27.778Z,12.60
2017-10-12T02:25:55.608Z,12.70
2017-10-12T02:28:24.155Z,12.80
2017-10-12T02:30:51.937Z,12.80
2017-10-12T02:33:20.544Z,12.80
2017-10-12T02:35:49.068Z,12.80
2017-10-12T02:38:16.904Z,12.80
2017-10-12T02:40:44.755Z,12.80
2017-10-12T02:43:12.539Z,12.90
2017-10-12T02:45:40.323Z,12.90
2017-10-12T02:48:08.478Z,13.00
2017-10-12T02:50:36.269Z,12.90
2017-10-12T02:53:04.034Z,12.90
2017-10-12T02:55:31.904Z,13.00
2017-10-12T02:57:59.692Z,13.00
2017-10-12T03:00:28.234Z,13.00
2017-10-12T03:02:56.042Z,13.00
2017-10-12T03:05:23.796Z,13.00
2017-10-12T03:07:52.341Z,13.00
2017-10-12T03:10:20.949Z,13.10
2017-10-12T03:12:49.494Z,13.00
2017-10-12T03:15:17.278Z,13.00
2017-10-12T03:17:45.083Z,13.00
2017-10-12T03:20:12.862Z,12.90
2017-10-12T03:22:40.634Z,12.90
2017-10-12T03:25:08.452Z,12.90
2017-10-12T03:27:36.988Z,12.90
2017-10-12T03:30:04.760Z,12.80
2017-10-12T03:32:32.597Z,12.80
2017-10-12T03:35:00.373Z,12.70
2017-10-12T03:37:28.134Z,12.60
2017-10-12T03:39:55.955Z,12.60
2017-10-12T03:42:23.741Z,12.60
2017-10-12T03:44:51.507Z,12.60
2017-10-12T03:47:19.335Z,12.60
2017-10-12T03:49:47.111Z,12.70
2017-10-12T03:52:14.891Z,12.70
2017-10-12T03:54:42.744Z,12.80
2017-10-12T03:57:10.516Z,12.80
2017-10-12T03:59:38.275Z,12.90
2017-10-12T04:02:06.086Z,12.80
2017-10-12T04:04:34.629Z,12.50
2017-10-12T04:07:02.407Z,12.50
2017-10-12T04:09:30.213Z,12.30
2017-10-12T04:11:57.977Z,12.10
2017-10-12T04:14:25.743Z,12.00
2017-10-12T04:16:53.576Z,11.90
2017-10-12T04:19:21.354Z,11.90
2017-10-12T04:21:49.912Z,11.80
2017-10-12T04:24:17.721Z,11.80
2017-10-12T04:26:45.515Z,11.80
2017-10-12T04:29:13.340Z,11.70
2017-10-12T04:31:41.150Z,11.70
2017-10-12T04:34:08.916Z,11.70
2017-10-12T04:36:36.684Z,11.70
2017-10-12T04:39:04.511Z,11.70
2017-10-12T04:41:32.284Z,11.80
2017-10-12T04:44:00.062Z,11.90
2017-10-12T04:46:27.869Z,11.90
2017-10-12T04:48:56.397Z,12.10
2017-10-12T04:51:24.165Z,12.10
2017-10-12T04:53:51.969Z,12.20
2017-10-12T04:56:19.756Z,12.10
2017-10-12T04:58:47.520Z,12.10
2017-10-12T05:01:15.914Z,12.20
2017-10-12T05:03:43.733Z,12.20
2017-10-12T05:06:11.499Z,12.20
2017-10-12T05:08:39.318Z,12.20
2017-10-12T05:11:07.100Z,12.10
2017-10-12T05:13:35.667Z,11.80
2017-10-12T05:16:03.467Z,11.80
2017-10-12T05:18:31.239Z,11.70
2017-10-12T05:20:59.011Z,11.70
2017-10-12T05:23:26.820Z,11.70
2017-10-12T05:25:54.586Z,11.70
2017-10-12T05:28:22.354Z,11.80
2017-10-12T05:30:51.093Z,11.80
2017-10-12T05:33:18.899Z,11.80
2017-10-12T05:35:47.445Z,11.90
2017-10-12T05:38:15.262Z,11.80
2017-10-12T05:40:43.031Z,12.00
2017-10-12T05:43:10.806Z,12.20
2017-10-12T05:45:38.631Z,12.30
2017-10-12T05:48:06.416Z,12.40
2017-10-12T05:50:34.169Z,12.50
2017-10-12T05:53:01.990Z,12.50
2017-10-12T05:55:30.570Z,12.60
2017-10-12T05:57:58.377Z,12.60
2017-10-12T06:00:26.191Z,12.60
2017-10-12T06:02:53.964Z,12.70
2017-10-12T06:05:21.738Z,12.80
2017-10-12T06:07:49.545Z,12.90
2017-10-12T06:10:17.320Z,12.90
2017-10-12T06:12:45.102Z,12.90
2017-10-12T06:15:12.977Z,12.90
2017-10-12T06:17:40.753Z,13.00
2017-10-12T06:20:08.561Z,13.00
2017-10-12T06:22:36.378Z,13.10
2017-10-12T06:25:04.156Z,13.20
2017-10-12T06:27:31.919Z,13.40
2017-10-12T06:29:59.812Z,13.40
2017-10-12T06:32:27.575Z,13.50
2017-10-12T06:34:55.344Z,13.70
2017-10-12T06:37:23.165Z,13.90
2017-10-12T06:39:51.683Z,14.30
2017-10-12T06:42:19.459Z,14.30
2017-10-12T06:44:47.297Z,14.40
2017-10-12T06:47:15.060Z,14.60
2017-10-12T06:49:42.828Z,15.00
2017-10-12T06:52:10.633Z,15.40
2017-10-12T06:54:38.401Z,15.60
2017-10-12T06:57:06.192Z,15.70
2017-10-12T06:59:33.999Z,15.80
2017-10-12T07:02:01.757Z,15.80
2017-10-12T07:04:29.565Z,15.70
2017-10-12T07:06:58.129Z,15.70
2017-10-12T07:09:25.896Z,15.70
2017-10-12T07:11:54.425Z,19.20
2017-10-12T07:14:22.231Z,19.20
2017-10-12T07:16:50.000Z,21.70
2017-10-12T07:19:17.768Z,22.40
2017-10-12T07:21:46.340Z,22.10
2017-10-12T07:24:14.103Z,22.10
2017-10-12T07:26:41.868Z,22.30
2017-10-12T07:29:10.437Z,26.90
2017-10-12T07:31:38.200Z,26.80
2017-10-12T07:34:05.965Z,28.80
2017-10-12T07:36:33.773Z,29.30
2017-10-12T07:39:01.531Z,27.70
2017-10-12T07:41:29.297Z,25.00
2017-10-12T07:43:57.099Z,24.10
2017-10-12T07:46:24.871Z,25.30
2017-10-12T07:48:52.620Z,24.20
2017-10-12T07:51:20.470Z,23.80
2017-10-12T07:53:48.217Z,24.00
2017-10-12T07:56:16.764Z,25.20
2017-10-12T07:58:45.378Z,26.90
2017-10-12T08:01:13.166Z,26.80
2017-10-12T08:03:40.948Z,28.60
2017-10-12T08:06:08.779Z,29.10
2017-10-12T08:08:36.550Z,29.00
2017-10-12T08:11:06.271Z,31.20
2017-10-12T08:13:34.866Z,32.90
2017-10-12T08:16:02.626Z,32.80
2017-10-12T08:18:30.392Z,33.60
2017-10-12T08:20:58.963Z,32.80
2017-10-12T08:23:26.726Z,32.80
2017-10-12T08:25:54.487Z,31.60
2017-10-12T08:28:23.067Z,28.70
2017-10-12T08:30:50.828Z,28.60
2017-10-12T08:33:18.618Z,28.10
2017-10-12T08:35:47.218Z,29.90
2017-10-12T08:38:14.982Z,29.90
2017-10-12T08:40:42.838Z,30.40
2017-10-12T08:43:10.649Z,30.60
2017-10-12T08:45:38.462Z,31.10
2017-10-12T08:48:06.217Z,31.30
2017-10-12T08:50:34.028Z,31.20
2017-10-12T08:53:01.794Z,30.90
2017-10-12T08:55:29.559Z,30.40
2017-10-12T08:57:57.368Z,29.80
2017-10-12T09:00:25.122Z,29.20
2017-10-12T09:02:53.650Z,26.10
2017-10-12T09:05:21.437Z,26.00
2017-10-12T09:07:49.205Z,24.50
2017-10-12T09:10:16.975Z,23.20
2017-10-12T09:12:45.548Z,22.00
2017-10-12T09:15:14.160Z,21.90
2017-10-12T09:17:41.938Z,21.90
2017-10-12T09:20:10.505Z,22.10
2017-10-12T09:22:38.269Z,22.10
2017-10-12T09:25:06.029Z,22.30
2017-10-12T09:27:33.850Z,22.60
2017-10-12T09:30:01.624Z,22.80
2017-10-12T09:32:30.185Z,22.90
2017-10-12T09:34:57.997Z,22.90
2017-10-12T09:37:25.774Z,22.60
2017-10-12T09:39:53.566Z,22.20
2017-10-12T09:42:21.397Z,21.70
2017-10-12T09:44:49.166Z,21.50
2017-10-12T09:47:16.954Z,21.10
2017-10-12T09:49:44.993Z,21.00
2017-10-12T09:52:12.788Z,20.90
2017-10-12T09:54:40.583Z,20.70
2017-10-12T09:57:09.218Z,20.40
2017-10-12T09:59:36.976Z,20.40
2017-10-12T10:02:04.734Z,20.10
2017-10-12T10:04:32.532Z,19.80
2017-10-12T10:07:00.302Z,19.50
2017-10-12T10:09:28.863Z,19.00
2017-10-12T10:11:56.685Z,18.90
2017-10-12T10:14:24.460Z,18.90
2017-10-12T10:16:52.234Z,18.70
2017-10-12T10:19:20.047Z,18.60
2017-10-12T10:21:48.018Z,18.40
2017-10-12T10:24:15.813Z,18.20
2017-10-12T10:26:43.617Z,18.20
2017-10-12T10:29:12.155Z,18.20
2017-10-12T10:31:40.578Z,18.20
2017-10-12T10:34:09.140Z,18.20
2017-10-12T10:36:36.928Z,18.20
2017-10-12T10:39:04.706Z,18.10
2017-10-12T10:41:32.508Z,18.00
2017-10-12T10:44:00.355Z,17.80
2017-10-12T10:46:34.768Z,17.70
2017-10-12T10:49:02.830Z,17.70
2017-10-12T10:51:30.658Z,17.60
2017-10-12T10:53:59.236Z,17.50
2017-10-12T10:56:26.990Z,17.40
2017-10-12T10:58:54.751Z,17.40
2017-10-12T11:01:22.557Z,17.50
2017-10-12T11:03:50.319Z,17.50
2017-10-12T11:06:18.141Z,17.60
2017-10-12T11:08:45.949Z,17.60
2017-10-12T11:11:13.709Z,17.70
2017-10-12T11:13:41.460Z,17.90
2017-10-12T11:16:09.252Z,18.40
2017-10-12T11:18:37.009Z,18.90
2017-10-12T11:21:04.790Z,19.40
2017-10-12T11:23:32.592Z,19.70
2017-10-12T11:26:01.120Z,19.70
2017-10-12T11:28:28.888Z,19.70
2017-10-12T11:30:56.709Z,19.80
2017-10-12T11:33:24.485Z,19.80
2017-10-12T11:35:52.260Z,20.00
2017-10-12T11:38:20.118Z,20.30
2017-10-12T11:40:47.932Z,20.60
2017-10-12T11:43:15.695Z,20.70
2017-10-12T11:45:43.498Z,20.40
2017-10-12T11:48:11.275Z,20.10
2017-10-12T11:50:39.040Z,19.80
2017-10-12T11:53:06.837Z,19.60
2017-10-12T11:55:34.614Z,19.40
2017-10-12T11:58:03.149Z,19.80
2017-10-12T12:00:30.952Z,19.80
2017-10-12T12:02:59.524Z,19.80
2017-10-12T12:05:27.280Z,19.80
2017-10-12T12:07:55.082Z,19.60
2017-10-12T12:10:22.865Z,19.70
2017-10-12T12:12:50.641Z,19.80
2017-10-12T12:15:18.441Z,20.00
2017-10-12T12:17:46.970Z,20.40
2017-10-12T12:20:14.745Z,20.40
2017-10-12T12:22:42.572Z,20.50
2017-10-12T12:25:10.328Z,20.40
2017-10-12T12:27:38.089Z,20.40
2017-10-12T12:30:05.891Z,20.50
2017-10-12T12:32:33.654Z,20.40
2017-10-12T12:35:01.418Z,20.30
2017-10-12T12:37:29.408Z,20.40
2017-10-12T12:39:57.175Z,20.50
2017-10-12T12:42:24.937Z,20.60
2017-10-12T12:44:52.745Z,20.70
2017-10-12T12:47:20.519Z,20.70
2017-10-12T12:49:48.297Z,20.80
2017-10-12T12:52:16.230Z,20.60
2017-10-12T12:54:44.025Z,20.40
2017-10-12T12:57:11.789Z,20.30
2017-10-12T12:59:39.600Z,20.30
2017-10-12T13:02:07.363Z,20.20
2017-10-12T13:04:35.130Z,20.10
2017-10-12T13:07:02.940Z,20.10
2017-10-12T13:09:30.700Z,20.00
2017-10-12T13:11:58.492Z,20.00
2017-10-12T13:14:26.317Z,19.90
2017-10-12T13:16:54.077Z,19.80
2017-10-12T13:19:21.863Z,19.90
2017-10-12T13:21:49.677Z,19.90
2017-10-12T13:24:17.447Z,19.90
2017-10-12T13:26:45.204Z,20.00
2017-10-12T13:29:13.007Z,19.80
2017-10-12T13:31:40.773Z,19.60
2017-10-12T13:34:08.543Z,19.60
2017-10-12T13:36:36.350Z,19.40
2017-10-12T13:39:04.138Z,19.30
2017-10-12T13:41:31.898Z,19.20
2017-10-12T13:43:59.705Z,19.10
2017-10-12T13:46:28.273Z,18.80
2017-10-12T13:48:56.061Z,18.70
2017-10-12T13:51:23.881Z,18.60
2017-10-12T13:53:51.651Z,18.60
2017-10-12T13:56:19.417Z,18.60
2017-10-12T13:58:47.242Z,18.60
2017-10-12T14:01:15.024Z,18.70
2017-10-12T14:03:42.778Z,18.70
2017-10-12T14:06:10.590Z,18.80
2017-10-12T14:08:39.143Z,18.90
2017-10-12T14:11:06.930Z,18.90
2017-10-12T14:13:35.496Z,18.80
2017-10-12T14:16:03.263Z,18.80
2017-10-12T14:18:31.031Z,18.70
2017-10-12T14:20:59.600Z,18.70
2017-10-12T14:23:27.374Z,18.70
2017-10-12T14:25:55.919Z,18.60
2017-10-12T14:28:23.721Z,18.60
2017-10-12T14:30:52.268Z,18.30
2017-10-12T14:33:20.035Z,18.20
2017-10-12T14:35:47.846Z,18.20
2017-10-12T14:38:15.627Z,18.10
2017-10-12T14:40:43.396Z,18.10
2017-10-12T14:43:11.223Z,18.10
2017-10-12T14:45:38.993Z,18.10
2017-10-12T14:48:06.771Z,18.10
2017-10-12T14:50:34.568Z,18.20
2017-10-12T14:53:02.332Z,18.20
2017-10-12T14:55:30.087Z,18.10
2017-10-12T14:57:57.888Z,17.80
2017-10-12T15:00:25.685Z,17.70
2017-10-12T15:02:53.470Z,17.60
2017-10-12T15:05:21.293Z,17.30
2017-10-12T15:07:49.085Z,17.30
2017-10-12T15:10:17.646Z,17.30
2017-10-12T15:12:45.449Z,17.30
2017-10-12T15:15:13.202Z,17.20
2017-10-12T15:17:40.986Z,17.10
2017-10-12T15:20:08.803Z,17.00
2017-10-12T15:22:36.591Z,16.90
2017-10-12T15:25:04.397Z,16.80
2017-10-12T15:27:32.222Z,16.80
2017-10-12T15:30:00.018Z,16.70
2017-10-12T15:32:28.561Z,16.50
2017-10-12T15:34:56.370Z,16.50
2017-10-12T15:37:24.150Z,16.50
2017-10-12T15:39:52.935Z,16.40
2017-10-12T15:42:22.163Z,16.30
2017-10-12T15:44:49.974Z,16.20
2017-10-12T15:47:17.910Z,16.20
2017-10-12T15:49:46.247Z,16.10
2017-10-12T15:52:14.135Z,16.00
2017-10-12T15:54:41.990Z,16.00
2017-10-12T15:57:09.903Z,15.90
2017-10-12T15:59:37.696Z,15.90
2017-10-12T16:02:05.774Z,15.80
2017-10-12T16:04:33.953Z,15.70
2017-10-12T16:07:02.556Z,15.60
2017-10-12T16:09:30.337Z,15.60
2017-10-12T16:11:58.208Z,15.60
2017-10-12T16:14:26.018Z,15.50
2017-10-12T16:16:53.797Z,15.50
2017-10-12T16:19:21.643Z,15.50
2017-10-12T16:21:49.416Z,15.40
2017-10-12T16:24:17.197Z,15.30
2017-10-12T16:26:45.798Z,15.20
2017-10-12T16:29:14.334Z,15.10
2017-10-12T16:31:42.121Z,15.10
2017-10-12T16:34:10.063Z,15.00
2017-10-12T16:36:37.826Z,14.90
2017-10-12T16:39:05.599Z,14.90
2017-10-12T16:41:33.427Z,14.80
2017-10-12T16:44:01.224Z,14.80
2017-10-12T16:46:29.017Z,14.70
2017-10-12T16:48:57.731Z,14.50
2017-10-12T16:51:25.540Z,14.50
2017-10-12T16:53:53.391Z,14.40
2017-10-12T16:56:21.261Z,14.40
2017-10-12T16:58:49.569Z,14.30
2017-10-12T17:01:17.524Z,14.20
2017-10-12T17:03:46.149Z,14.10
2017-10-12T17:06:13.913Z,14.10
2017-10-12T17:08:41.957Z,14.00
2017-10-12T17:11:10.320Z,14.00
2017-10-12T17:13:38.156Z,13.90
2017-10-12T17:16:05.961Z,13.90
2017-10-12T17:18:34.576Z,13.80
2017-10-12T17:21:02.374Z,13.80
2017-10-12T17:25:59.653Z,13.60
2017-10-12T17:28:27.516Z,13.60
2017-10-12T17:33:23.195Z,13.40
2017-10-12T17:35:51.259Z,13.40
2017-10-12T17:38:19.403Z,13.30
2017-10-12T17:40:47.219Z,13.30
2017-10-12T17:43:15.021Z,13.30
2017-10-12T17:45:42.910Z,13.20
2017-10-12T17:48:10.768Z,13.20
2017-10-12T17:50:38.567Z,13.10
2017-10-12T17:53:06.386Z,13.10
2017-10-12T17:55:34.253Z,13.00
2017-10-12T17:58:02.199Z,12.90
2017-10-12T18:00:30.000Z,12.80
2017-10-12T18:02:57.835Z,12.80
2017-10-12T18:05:25.615Z,12.70
2017-10-12T18:07:53.381Z,12.60
2017-10-12T18:10:21.239Z,12.50
2017-10-12T18:12:49.028Z,12.50
2017-10-12T18:15:16.811Z,12.40
2017-10-12T18:17:44.996Z,12.20
2017-10-12T18:20:13.075Z,12.20
2017-10-12T18:22:40.976Z,12.10
2017-10-12T18:25:08.845Z,12.10
2017-10-12T18:27:36.704Z,12.00
2017-10-12T18:30:04.491Z,12.00
2017-10-12T18:32:32.296Z,12.00
2017-10-12T18:35:00.066Z,12.00
2017-10-12T18:37:28.096Z,12.00
2017-10-12T18:39:55.902Z,12.00
2017-10-12T18:42:23.679Z,12.00
2017-10-12T18:44:51.483Z,11.80
2017-10-12T18:47:19.382Z,11.70
2017-10-12T18:49:47.191Z,11.70
2017-10-12T18:52:14.960Z,11.60
2017-10-12T18:54:42.888Z,11.60
2017-10-12T18:57:10.704Z,11.50
2017-10-12T18:59:39.470Z,11.40
2017-10-12T19:02:07.445Z,11.40
2017-10-12T19:04:35.220Z,11.40
2017-10-12T19:07:02.997Z,11.30
2017-10-12T19:09:30.848Z,11.40
2017-10-12T19:11:59.394Z,11.30
2017-10-12T19:14:27.169Z,11.20
2017-10-12T19:16:55.001Z,11.20
2017-10-12T19:19:22.793Z,11.20
2017-10-12T19:21:50.582Z,11.10
2017-10-12T19:24:19.844Z,11.10
2017-10-12T19:26:47.657Z,11.10
2017-10-12T19:29:15.697Z,11.00
2017-10-12T19:31:43.592Z,11.10
2017-10-12T19:34:11.417Z,11.10
2017-10-12T19:36:39.327Z,11.00
2017-10-12T19:39:07.164Z,11.10
2017-10-12T19:41:35.713Z,11.10
2017-10-12T19:44:03.527Z,11.10
2017-10-12T19:46:31.334Z,11.10
2017-10-12T19:48:59.171Z,11.10
2017-10-12T19:51:26.972Z,11.20
2017-10-12T19:53:55.067Z,11.20
2017-10-12T19:56:23.614Z,11.20
2017-10-12T19:59:06.347Z,11.20
2017-10-12T20:01:19.333Z,11.30
2017-10-12T20:03:47.163Z,11.30
2017-10-12T20:06:14.957Z,11.40
2017-10-12T20:08:42.797Z,11.30
2017-10-12T20:13:38.376Z,11.30
2017-10-12T20:16:06.880Z,11.30
2017-10-12T20:18:35.460Z,11.30
2017-10-12T20:21:03.228Z,11.30
2017-10-12T20:23:31.068Z,11.30
2017-10-12T20:25:59.632Z,11.40
2017-10-12T20:28:27.419Z,11.40
2017-10-12T20:30:56.008Z,11.40
2017-10-12T20:33:23.824Z,11.40
2017-10-12T20:35:51.608Z,11.40
2017-10-12T20:38:19.428Z,11.30
2017-10-12T20:40:48.842Z,11.40
2017-10-12T20:43:16.702Z,11.40
2017-10-12T20:45:44.528Z,11.30
2017-10-12T20:48:12.398Z,11.30
2017-10-12T20:50:40.328Z,11.30
2017-10-12T20:53:09.014Z,11.20
2017-10-12T20:55:36.807Z,11.20
2017-10-12T20:58:04.608Z,11.10
2017-10-12T21:00:32.454Z,11.10
2017-10-12T21:03:00.284Z,11.10
2017-10-12T21:05:28.933Z,11.10
2017-10-12T21:07:56.803Z,11.10
2017-10-12T21:10:24.671Z,11.10
2017-10-12T21:12:52.474Z,11.20
2017-10-12T21:15:20.328Z,11.20
2017-10-12T21:17:48.100Z,11.30
2017-10-12T21:20:15.883Z,11.30
2017-10-12T21:22:43.737Z,11.30
2017-10-12T21:25:11.513Z,11.30
2017-10-12T21:27:39.292Z,11.30
2017-10-12T21:30:07.150Z,11.30
2017-10-12T21:32:34.954Z,11.40
2017-10-12T21:35:03.500Z,11.30
2017-10-12T21:37:31.332Z,11.30
2017-10-12T21:39:59.142Z,11.40
2017-10-12T21:42:26.952Z,11.50
2017-10-12T21:44:54.793Z,11.60
2017-10-12T21:47:22.574Z,11.60
2017-10-12T21:49:50.356Z,11.40
2017-10-12T21:52:18.184Z,11.30
2017-10-12T21:54:45.964Z,11.20
2017-10-12T21:57:13.782Z,11.10
2017-10-12T21:59:41.669Z,11.10
2017-10-12T22:02:09.539Z,11.00
2017-10-12T22:04:37.307Z,10.90
2017-10-12T22:07:05.122Z,10.90
2017-10-12T22:09:32.884Z,10.80
2017-10-12T22:12:00.682Z,10.80
2017-10-12T22:14:28.535Z,10.80
2017-10-12T22:16:57.104Z,10.60
2017-10-12T22:19:24.874Z,10.70
2017-10-12T22:21:53.458Z,10.60
2017-10-12T22:24:22.008Z,10.60
2017-10-12T22:26:49.835Z,10.60
2017-10-12T22:57:19.932Z,10.30
2017-10-12T22:59:47.721Z,10.40
2017-10-12T23:02:15.576Z,10.40
2017-10-12T23:04:43.415Z,10.40
2017-10-12T23:07:11.188Z,10.50
2017-10-12T23:09:38.982Z,10.50
2017-10-12T23:12:06.803Z,10.60
2017-10-12T23:14:34.571Z,10.50
2017-10-12T23:17:02.372Z,10.50
2017-10-12T23:19:30.191Z,10.50
2017-10-12T23:21:57.971Z,10.50
2017-10-12T23:24:25.758Z,10.50
2017-10-12T23:26:53.583Z,10.60
2017-10-12T23:29:21.369Z,10.60
2017-10-12T23:31:49.141Z,10.60
2017-10-12T23:34:16.955Z,10.50
2017-10-12T23:36:44.733Z,10.50
2017-10-12T23:39:12.507Z,10.40
2017-10-12T23:41:40.323Z,10.40
2017-10-12T23:44:08.099Z,10.50
2017-10-12T23:46:36.643Z,10.50
2017-10-12T23:49:04.458Z,10.50
2017-10-12T23:51:32.256Z,10.60
2017-10-12T23:54:00.023Z,10.60
2017-10-12T23:56:27.833Z,10.60
2017-10-12T23:58:55.623Z,10.60
